sensor_id;sensor_type;location;lat;lon;timestamp;temperature;humidity
6018;DHT22;3037;51.068;13.780;2022-09-02T00:01:39;11.50;99.90
6018;DHT22;3037;51.068;13.780;2022-09-02T00:04:10;11.50;99.90
6018;DHT22;3037;51.068;13.780;2022-09-02T00:06:37;11.30;99.90
6018;DHT22;3037;51.068;13.780;2022-09-02T00:09:04;11.30;99.90
6018;DHT22;3037;51.068;13.780;2022-09-02T00:11:32;11.30;99.90
6018;DHT22;3037;51.068;13.780;2022-09-02T00:14:01;11.30;99.90
6018;DHT22;3037;51.068;13.780;2022-09-02T00:16:27;11.40;99.90
6018;DHT22;3037;51.068;13.780;2022-09-02T00:18:53;11.60;99.90
6018;DHT22;3037;51.068;13.780;2022-09-02T00:21:19;11.60;99.90
6018;DHT22;3037;51.068;13.780;2022-09-02T00:23:45;11.50;99.90
6018;DHT22;3037;51.068;13.780;2022-09-02T00:26:12;11.30;99.90
6018;DHT22;3037;51.068;13.780;2022-09-02T00:28:38;11.30;99.90
6018;DHT22;3037;51.068;13.780;2022-09-02T00:31:04;11.30;99.90
6018;DHT22;3037;51.068;13.780;2022-09-02T00:33:30;11.40;99.90
6018;DHT22;3037;51.068;13.780;2022-09-02T00:35:58;11.30;99.90
6018;DHT22;3037;51.068;13.780;2022-09-02T00:38:24;11.30;99.90
6018;DHT22;3037;51.068;13.780;2022-09-02T00:40:50;11.20;99.90
6018;DHT22;3037;51.068;13.780;2022-09-02T00:43:25;11.20;99.90
6018;DHT22;3037;51.068;13.780;2022-09-02T00:45:51;11.30;99.90
6018;DHT22;3037;51.068;13.780;2022-09-02T00:48:18;11.20;99.90
6018;DHT22;3037;51.068;13.780;2022-09-02T00:50:43;11.20;99.90
6018;DHT22;3037;51.068;13.780;2022-09-02T00:53:11;11.10;99.90
6018;DHT22;3037;51.068;13.780;2022-09-02T00:55:42;11.20;99.90
6018;DHT22;3037;51.068;13.780;2022-09-02T00:58:23;11.10;99.90
6018;DHT22;3037;51.068;13.780;2022-09-02T01:00:53;11.20;99.90
6018;DHT22;3037;51.068;13.780;2022-09-02T01:03:27;11.10;99.90
6018;DHT22;3037;51.068;13.780;2022-09-02T01:05:54;11.00;99.90
6018;DHT22;3037;51.068;13.780;2022-09-02T01:08:23;10.90;99.90
6018;DHT22;3037;51.068;13.780;2022-09-02T01:10:51;10.90;99.90
6018;DHT22;3037;51.068;13.780;2022-09-02T01:13:21;10.90;99.90
6018;DHT22;3037;51.068;13.780;2022-09-02T01:15:59;10.90;99.90
6018;DHT22;3037;51.068;13.780;2022-09-02T01:18:28;11.00;99.90
6018;DHT22;3037;51.068;13.780;2022-09-02T01:20:55;10.90;99.90
6018;DHT22;3037;51.068;13.780;2022-09-02T01:23:21;10.90;99.90
6018;DHT22;3037;51.068;13.780;2022-09-02T01:25:47;11.00;99.90
6018;DHT22;3037;51.068;13.780;2022-09-02T01:28:16;11.00;99.90
6018;DHT22;3037;51.068;13.780;2022-09-02T01:30:49;10.80;99.90
6018;DHT22;3037;51.068;13.780;2022-09-02T01:33:16;10.80;99.90
6018;DHT22;3037;51.068;13.780;2022-09-02T01:35:42;10.80;99.90
6018;DHT22;3037;51.068;13.780;2022-09-02T01:38:08;10.80;99.90
6018;DHT22;3037;51.068;13.780;2022-09-02T01:40:34;10.60;99.90
6018;DHT22;3037;51.068;13.780;2022-09-02T01:43:13;10.60;99.90
6018;DHT22;3037;51.068;13.780;2022-09-02T01:45:41;10.50;99.90
6018;DHT22;3037;51.068;13.780;2022-09-02T01:48:08;10.50;99.90
6018;DHT22;3037;51.068;13.780;2022-09-02T01:50:36;10.40;99.90
6018;DHT22;3037;51.068;13.780;2022-09-02T01:53:02;10.40;99.90
6018;DHT22;3037;51.068;13.780;2022-09-02T01:55:29;10.40;99.90
6018;DHT22;3037;51.068;13.780;2022-09-02T01:57:54;10.50;99.90
6018;DHT22;3037;51.068;13.780;2022-09-02T02:00:20;10.30;99.90
6018;DHT22;3037;51.068;13.780;2022-09-02T02:02:46;10.30;99.90
6018;DHT22;3037;51.068;13.780;2022-09-02T02:05:12;10.30;99.90
6018;DHT22;3037;51.068;13.780;2022-09-02T02:10:06;10.40;99.90
6018;DHT22;3037;51.068;13.780;2022-09-02T02:12:33;10.50;99.90
6018;DHT22;3037;51.068;13.780;2022-09-02T02:15:04;10.10;99.90
6018;DHT22;3037;51.068;13.780;2022-09-02T02:17:30;10.30;99.90
6018;DHT22;3037;51.068;13.780;2022-09-02T02:19:55;10.30;99.90
6018;DHT22;3037;51.068;13.780;2022-09-02T02:22:21;10.30;99.90
6018;DHT22;3037;51.068;13.780;2022-09-02T02:24:47;10.60;99.90
6018;DHT22;3037;51.068;13.780;2022-09-02T02:27:13;10.60;99.90
6018;DHT22;3037;51.068;13.780;2022-09-02T02:29:38;10.50;99.90
6018;DHT22;3037;51.068;13.780;2022-09-02T02:32:04;10.40;99.90
6018;DHT22;3037;51.068;13.780;2022-09-02T02:34:31;10.30;99.90
6018;DHT22;3037;51.068;13.780;2022-09-02T02:36:57;10.20;99.90
6018;DHT22;3037;51.068;13.780;2022-09-02T02:39:22;10.50;99.90
6018;DHT22;3037;51.068;13.780;2022-09-02T02:41:48;10.30;99.90
6018;DHT22;3037;51.068;13.780;2022-09-02T02:44:14;10.20;99.90
6018;DHT22;3037;51.068;13.780;2022-09-02T02:46:39;10.10;99.90
6018;DHT22;3037;51.068;13.780;2022-09-02T02:49:05;10.00;99.90
6018;DHT22;3037;51.068;13.780;2022-09-02T02:51:31;10.10;99.90
6018;DHT22;3037;51.068;13.780;2022-09-02T02:53:56;10.30;99.90
6018;DHT22;3037;51.068;13.780;2022-09-02T02:56:23;10.60;99.90
6018;DHT22;3037;51.068;13.780;2022-09-02T02:58:49;10.30;99.90
6018;DHT22;3037;51.068;13.780;2022-09-02T03:01:15;10.30;99.90
6018;DHT22;3037;51.068;13.780;2022-09-02T03:03:40;10.30;99.90
6018;DHT22;3037;51.068;13.780;2022-09-02T03:06:07;10.30;99.90
6018;DHT22;3037;51.068;13.780;2022-09-02T03:08:33;10.30;99.90
6018;DHT22;3037;51.068;13.780;2022-09-02T03:10:59;10.30;99.90
6018;DHT22;3037;51.068;13.780;2022-09-02T03:13:26;10.40;99.90
6018;DHT22;3037;51.068;13.780;2022-09-02T03:15:52;10.50;99.90
6018;DHT22;3037;51.068;13.780;2022-09-02T03:18:17;10.40;99.90
6018;DHT22;3037;51.068;13.780;2022-09-02T03:20:43;10.40;99.90
6018;DHT22;3037;51.068;13.780;2022-09-02T03:23:10;10.60;99.90
6018;DHT22;3037;51.068;13.780;2022-09-02T03:25:37;10.60;99.90
6018;DHT22;3037;51.068;13.780;2022-09-02T03:28:05;10.70;99.90
6018;DHT22;3037;51.068;13.780;2022-09-02T03:30:32;10.60;99.90
6018;DHT22;3037;51.068;13.780;2022-09-02T03:32:59;10.60;99.90
6018;DHT22;3037;51.068;13.780;2022-09-02T03:35:26;10.60;99.90
6018;DHT22;3037;51.068;13.780;2022-09-02T03:37:52;10.50;99.90
6018;DHT22;3037;51.068;13.780;2022-09-02T03:40:22;10.60;99.90
6018;DHT22;3037;51.068;13.780;2022-09-02T03:42:48;10.40;99.90
6018;DHT22;3037;51.068;13.780;2022-09-02T03:45:15;10.40;99.90
6018;DHT22;3037;51.068;13.780;2022-09-02T03:47:42;10.40;99.90
6018;DHT22;3037;51.068;13.780;2022-09-02T03:50:19;10.50;99.90
6018;DHT22;3037;51.068;13.780;2022-09-02T03:52:46;10.40;99.90
6018;DHT22;3037;51.068;13.780;2022-09-02T03:55:13;10.30;99.90
6018;DHT22;3037;51.068;13.780;2022-09-02T03:57:39;10.30;99.90
6018;DHT22;3037;51.068;13.780;2022-09-02T04:00:09;10.20;99.90
6018;DHT22;3037;51.068;13.780;2022-09-02T04:02:35;10.20;99.90
6018;DHT22;3037;51.068;13.780;2022-09-02T04:05:01;10.10;99.90
6018;DHT22;3037;51.068;13.780;2022-09-02T04:07:26;10.10;99.90
6018;DHT22;3037;51.068;13.780;2022-09-02T04:09:52;10.00;99.90
6018;DHT22;3037;51.068;13.780;2022-09-02T04:12:21;9.90;99.90
6018;DHT22;3037;51.068;13.780;2022-09-02T04:14:46;9.90;99.90
6018;DHT22;3037;51.068;13.780;2022-09-02T04:17:12;10.10;99.90
6018;DHT22;3037;51.068;13.780;2022-09-02T04:19:37;10.00;99.90
6018;DHT22;3037;51.068;13.780;2022-09-02T04:22:05;10.10;99.90
6018;DHT22;3037;51.068;13.780;2022-09-02T04:24:31;10.30;99.90
6018;DHT22;3037;51.068;13.780;2022-09-02T04:26:56;10.30;99.90
6018;DHT22;3037;51.068;13.780;2022-09-02T04:29:22;10.20;99.90
6018;DHT22;3037;51.068;13.780;2022-09-02T04:31:48;10.30;99.90
6018;DHT22;3037;51.068;13.780;2022-09-02T04:34:14;10.30;99.90
6018;DHT22;3037;51.068;13.780;2022-09-02T04:36:39;10.80;99.90
6018;DHT22;3037;51.068;13.780;2022-09-02T04:39:06;10.50;99.90
6018;DHT22;3037;51.068;13.780;2022-09-02T04:41:33;10.40;99.90
6018;DHT22;3037;51.068;13.780;2022-09-02T04:44:00;10.40;99.90
6018;DHT22;3037;51.068;13.780;2022-09-02T04:46:26;10.60;99.90
6018;DHT22;3037;51.068;13.780;2022-09-02T04:48:52;10.40;99.90
6018;DHT22;3037;51.068;13.780;2022-09-02T04:51:22;10.50;99.90
6018;DHT22;3037;51.068;13.780;2022-09-02T04:53:48;10.50;99.90
6018;DHT22;3037;51.068;13.780;2022-09-02T04:56:17;10.50;99.90
6018;DHT22;3037;51.068;13.780;2022-09-02T04:58:43;10.50;99.90
6018;DHT22;3037;51.068;13.780;2022-09-02T05:01:12;10.60;99.90
6018;DHT22;3037;51.068;13.780;2022-09-02T05:03:40;10.50;99.90
6018;DHT22;3037;51.068;13.780;2022-09-02T05:06:08;10.60;99.90
6018;DHT22;3037;51.068;13.780;2022-09-02T05:08:34;10.70;99.90
6018;DHT22;3037;51.068;13.780;2022-09-02T05:11:16;10.80;99.90
6018;DHT22;3037;51.068;13.780;2022-09-02T05:13:46;10.90;99.90
6018;DHT22;3037;51.068;13.780;2022-09-02T05:16:20;10.90;99.90
6018;DHT22;3037;51.068;13.780;2022-09-02T05:18:46;10.90;99.90
6018;DHT22;3037;51.068;13.780;2022-09-02T05:21:12;11.00;99.90
6018;DHT22;3037;51.068;13.780;2022-09-02T05:23:37;11.00;99.90
6018;DHT22;3037;51.068;13.780;2022-09-02T05:26:05;11.10;99.90
6018;DHT22;3037;51.068;13.780;2022-09-02T05:28:30;11.10;99.90
6018;DHT22;3037;51.068;13.780;2022-09-02T05:31:02;11.20;99.90
6018;DHT22;3037;51.068;13.780;2022-09-02T05:33:30;11.20;99.90
6018;DHT22;3037;51.068;13.780;2022-09-02T05:35:56;11.20;99.90
6018;DHT22;3037;51.068;13.780;2022-09-02T05:38:21;11.30;99.90
6018;DHT22;3037;51.068;13.780;2022-09-02T05:40:47;11.30;99.90
6018;DHT22;3037;51.068;13.780;2022-09-02T05:43:12;11.40;99.90
6018;DHT22;3037;51.068;13.780;2022-09-02T05:45:38;11.60;99.90
6018;DHT22;3037;51.068;13.780;2022-09-02T05:48:05;11.50;99.90
6018;DHT22;3037;51.068;13.780;2022-09-02T05:50:50;11.60;99.90
6018;DHT22;3037;51.068;13.780;2022-09-02T05:53:16;12.00;99.90
6018;DHT22;3037;51.068;13.780;2022-09-02T05:55:41;12.00;99.90
6018;DHT22;3037;51.068;13.780;2022-09-02T05:58:07;12.00;99.90
6018;DHT22;3037;51.068;13.780;2022-09-02T06:00:32;12.10;99.90
6018;DHT22;3037;51.068;13.780;2022-09-02T06:02:58;12.10;99.90
6018;DHT22;3037;51.068;13.780;2022-09-02T06:05:23;12.30;99.90
6018;DHT22;3037;51.068;13.780;2022-09-02T06:07:49;12.60;99.90
6018;DHT22;3037;51.068;13.780;2022-09-02T06:10:14;12.70;99.90
6018;DHT22;3037;51.068;13.780;2022-09-02T06:12:40;13.00;99.90
6018;DHT22;3037;51.068;13.780;2022-09-02T06:15:07;16.50;99.90
6018;DHT22;3037;51.068;13.780;2022-09-02T06:17:32;18.80;99.90
6018;DHT22;3037;51.068;13.780;2022-09-02T06:19:58;20.10;99.90
6018;DHT22;3037;51.068;13.780;2022-09-02T06:22:23;21.40;99.90
6018;DHT22;3037;51.068;13.780;2022-09-02T06:24:49;21.50;95.80
6018;DHT22;3037;51.068;13.780;2022-09-02T06:27:15;22.40;97.30
6018;DHT22;3037;51.068;13.780;2022-09-02T06:29:40;22.40;91.90
6018;DHT22;3037;51.068;13.780;2022-09-02T06:32:07;22.80;84.60
6018;DHT22;3037;51.068;13.780;2022-09-02T06:34:32;23.30;87.90
6018;DHT22;3037;51.068;13.780;2022-09-02T06:36:59;24.10;82.00
6018;DHT22;3037;51.068;13.780;2022-09-02T06:39:25;24.80;79.80
6018;DHT22;3037;51.068;13.780;2022-09-02T06:41:51;24.90;78.50
6018;DHT22;3037;51.068;13.780;2022-09-02T06:46:51;26.30;61.60
6018;DHT22;3037;51.068;13.780;2022-09-02T06:49:17;25.50;60.70
6018;DHT22;3037;51.068;13.780;2022-09-02T06:51:45;26.40;52.60
6018;DHT22;3037;51.068;13.780;2022-09-02T06:54:14;26.60;45.90
6018;DHT22;3037;51.068;13.780;2022-09-02T06:56:41;26.70;38.70
6018;DHT22;3037;51.068;13.780;2022-09-02T06:59:08;26.00;35.20
6018;DHT22;3037;51.068;13.780;2022-09-02T07:01:34;26.40;32.10
6018;DHT22;3037;51.068;13.780;2022-09-02T07:04:01;26.50;35.30
6018;DHT22;3037;51.068;13.780;2022-09-02T07:06:48;27.30;41.40
6018;DHT22;3037;51.068;13.780;2022-09-02T07:09:17;28.60;32.40
6018;DHT22;3037;51.068;13.780;2022-09-02T07:11:44;28.50;31.30
6018;DHT22;3037;51.068;13.780;2022-09-02T07:14:17;28.20;27.80
6018;DHT22;3037;51.068;13.780;2022-09-02T07:16:47;28.80;27.20
6018;DHT22;3037;51.068;13.780;2022-09-02T07:19:13;29.20;24.50
6018;DHT22;3037;51.068;13.780;2022-09-02T07:21:39;28.90;22.90
6018;DHT22;3037;51.068;13.780;2022-09-02T07:24:09;29.40;19.50
6018;DHT22;3037;51.068;13.780;2022-09-02T07:26:36;29.40;19.40
6018;DHT22;3037;51.068;13.780;2022-09-02T07:29:03;30.40;18.80
6018;DHT22;3037;51.068;13.780;2022-09-02T07:31:29;30.60;16.50
6018;DHT22;3037;51.068;13.780;2022-09-02T07:33:55;30.10;13.80
6018;DHT22;3037;51.068;13.780;2022-09-02T07:36:24;30.60;11.10
6018;DHT22;3037;51.068;13.780;2022-09-02T07:38:50;30.30;11.40
6018;DHT22;3037;51.068;13.780;2022-09-02T07:43:42;32.10;16.10
6018;DHT22;3037;51.068;13.780;2022-09-02T07:48:35;33.30;1.00
6018;DHT22;3037;51.068;13.780;2022-09-02T07:51:01;32.80;1.00
6018;DHT22;3037;51.068;13.780;2022-09-02T07:53:28;33.80;1.00
6018;DHT22;3037;51.068;13.780;2022-09-02T07:55:53;32.00;1.00
6018;DHT22;3037;51.068;13.780;2022-09-02T07:58:20;32.00;1.00
6018;DHT22;3037;51.068;13.780;2022-09-02T08:00:47;33.20;1.00
6018;DHT22;3037;51.068;13.780;2022-09-02T08:03:13;32.30;1.00
6018;DHT22;3037;51.068;13.780;2022-09-02T08:05:40;32.50;1.00
6018;DHT22;3037;51.068;13.780;2022-09-02T08:08:06;33.00;1.00
6018;DHT22;3037;51.068;13.780;2022-09-02T08:10:35;32.80;1.00
6018;DHT22;3037;51.068;13.780;2022-09-02T08:13:01;33.90;1.00
6018;DHT22;3037;51.068;13.780;2022-09-02T08:15:28;34.00;1.00
6018;DHT22;3037;51.068;13.780;2022-09-02T08:17:55;34.30;1.00
6018;DHT22;3037;51.068;13.780;2022-09-02T08:20:22;32.90;1.00
6018;DHT22;3037;51.068;13.780;2022-09-02T08:22:48;33.20;1.00
6018;DHT22;3037;51.068;13.780;2022-09-02T08:25:14;33.50;1.00
6018;DHT22;3037;51.068;13.780;2022-09-02T08:27:41;33.50;1.00
6018;DHT22;3037;51.068;13.780;2022-09-02T08:30:08;34.30;1.00
6018;DHT22;3037;51.068;13.780;2022-09-02T08:32:38;33.90;1.00
6018;DHT22;3037;51.068;13.780;2022-09-02T08:35:05;32.50;1.00
6018;DHT22;3037;51.068;13.780;2022-09-02T08:37:32;32.90;1.00
6018;DHT22;3037;51.068;13.780;2022-09-02T08:39:58;34.50;1.00
6018;DHT22;3037;51.068;13.780;2022-09-02T08:42:32;34.20;1.00
6018;DHT22;3037;51.068;13.780;2022-09-02T08:45:27;34.20;1.00
6018;DHT22;3037;51.068;13.780;2022-09-02T08:48:27;33.40;1.00
6018;DHT22;3037;51.068;13.780;2022-09-02T08:50:49;32.50;1.00
6018;DHT22;3037;51.068;13.780;2022-09-02T08:55:53;33.70;1.00
6018;DHT22;3037;51.068;13.780;2022-09-02T08:58:22;34.10;1.00
6018;DHT22;3037;51.068;13.780;2022-09-02T09:01:08;34.40;1.00
6018;DHT22;3037;51.068;13.780;2022-09-02T09:07:03;34.20;1.00
6018;DHT22;3037;51.068;13.780;2022-09-02T09:15:08;32.40;1.00
6018;DHT22;3037;51.068;13.780;2022-09-02T09:17:46;30.30;1.00
6018;DHT22;3037;51.068;13.780;2022-09-02T09:20:19;27.80;1.00
6018;DHT22;3037;51.068;13.780;2022-09-02T09:22:47;30.30;1.00
6018;DHT22;3037;51.068;13.780;2022-09-02T09:25:15;30.30;1.00
6018;DHT22;3037;51.068;13.780;2022-09-02T09:27:41;30.50;1.00
6018;DHT22;3037;51.068;13.780;2022-09-02T09:30:08;27.90;1.00
6018;DHT22;3037;51.068;13.780;2022-09-02T09:32:46;28.20;1.00
6018;DHT22;3037;51.068;13.780;2022-09-02T09:35:15;30.10;1.00
6018;DHT22;3037;51.068;13.780;2022-09-02T09:37:48;30.70;1.00
6018;DHT22;3037;51.068;13.780;2022-09-02T09:48:26;28.20;1.00
6018;DHT22;3037;51.068;13.780;2022-09-02T09:53:28;28.00;1.00
6018;DHT22;3037;51.068;13.780;2022-09-02T09:58:36;27.30;1.00
6018;DHT22;3037;51.068;13.780;2022-09-02T10:01:30;26.40;1.00
6018;DHT22;3037;51.068;13.780;2022-09-02T10:04:06;25.70;1.00
6018;DHT22;3037;51.068;13.780;2022-09-02T10:11:54;25.70;1.00
6018;DHT22;3037;51.068;13.780;2022-09-02T10:14:20;25.40;1.00
6018;DHT22;3037;51.068;13.780;2022-09-02T10:19:48;24.70;1.00
6018;DHT22;3037;51.068;13.780;2022-09-02T10:22:44;25.20;1.00
6018;DHT22;3037;51.068;13.780;2022-09-02T10:38:53;23.30;1.00
6018;DHT22;3037;51.068;13.780;2022-09-02T10:41:41;23.80;1.00
6018;DHT22;3037;51.068;13.780;2022-09-02T10:44:32;23.70;1.00
6018;DHT22;3037;51.068;13.780;2022-09-02T10:47:29;23.60;1.00
6018;DHT22;3037;51.068;13.780;2022-09-02T10:55:41;23.30;1.00
6018;DHT22;3037;51.068;13.780;2022-09-02T10:58:13;23.60;1.00
6018;DHT22;3037;51.068;13.780;2022-09-02T11:00:43;24.30;1.00
6018;DHT22;3037;51.068;13.780;2022-09-02T11:03:19;25.10;1.00
6018;DHT22;3037;51.068;13.780;2022-09-02T11:06:02;25.40;1.00
6018;DHT22;3037;51.068;13.780;2022-09-02T11:08:52;24.80;1.00
6018;DHT22;3037;51.068;13.780;2022-09-02T11:11:31;25.20;1.00
6018;DHT22;3037;51.068;13.780;2022-09-02T11:13:59;25.70;1.00
6018;DHT22;3037;51.068;13.780;2022-09-02T11:19:02;26.10;1.00
6018;DHT22;3037;51.068;13.780;2022-09-02T11:24:07;25.50;1.00
6018;DHT22;3037;51.068;13.780;2022-09-02T11:29:19;24.90;1.00
6018;DHT22;3037;51.068;13.780;2022-09-02T11:37:10;22.90;1.00
6018;DHT22;3037;51.068;13.780;2022-09-02T11:39:43;22.90;1.00
6018;DHT22;3037;51.068;13.780;2022-09-02T11:42:28;22.60;1.00
6018;DHT22;3037;51.068;13.780;2022-09-02T11:47:58;23.00;1.00
6018;DHT22;3037;51.068;13.780;2022-09-02T11:53:28;22.60;1.00
6018;DHT22;3037;51.068;13.780;2022-09-02T12:03:51;22.40;1.00
6018;DHT22;3037;51.068;13.780;2022-09-02T12:06:19;22.60;1.00
6018;DHT22;3037;51.068;13.780;2022-09-02T12:14:02;22.20;1.00
6018;DHT22;3037;51.068;13.780;2022-09-02T12:21:20;22.60;1.00
6018;DHT22;3037;51.068;13.780;2022-09-02T12:26:21;23.40;1.00
6018;DHT22;3037;51.068;13.780;2022-09-02T12:28:48;24.10;1.00
6018;DHT22;3037;51.068;13.780;2022-09-02T12:37:00;22.80;1.00
6018;DHT22;3037;51.068;13.780;2022-09-02T12:44:55;22.70;1.00
6018;DHT22;3037;51.068;13.780;2022-09-02T12:50:26;23.00;1.00
6018;DHT22;3037;51.068;13.780;2022-09-02T12:53:22;22.90;1.00
6018;DHT22;3037;51.068;13.780;2022-09-02T12:58:23;22.60;1.00
6018;DHT22;3037;51.068;13.780;2022-09-02T13:06:59;21.90;1.00
6018;DHT22;3037;51.068;13.780;2022-09-02T13:13:11;21.80;1.00
6018;DHT22;3037;51.068;13.780;2022-09-02T13:19:03;21.50;1.00
6018;DHT22;3037;51.068;13.780;2022-09-02T13:30:15;21.60;1.00
6018;DHT22;3037;51.068;13.780;2022-09-02T13:32:43;21.50;1.00
6018;DHT22;3037;51.068;13.780;2022-09-02T13:35:17;21.30;1.00
6018;DHT22;3037;51.068;13.780;2022-09-02T13:37:43;21.20;1.00
6018;DHT22;3037;51.068;13.780;2022-09-02T13:40:23;21.00;1.00
6018;DHT22;3037;51.068;13.780;2022-09-02T13:42:51;20.90;1.00
6018;DHT22;3037;51.068;13.780;2022-09-02T13:45:22;21.10;1.00
6018;DHT22;3037;51.068;13.780;2022-09-02T13:47:50;21.10;1.00
6018;DHT22;3037;51.068;13.780;2022-09-02T13:50:19;21.80;1.00
6018;DHT22;3037;51.068;13.780;2022-09-02T13:52:49;22.50;1.00
6018;DHT22;3037;51.068;13.780;2022-09-02T13:55:15;22.70;1.00
6018;DHT22;3037;51.068;13.780;2022-09-02T13:57:53;22.90;1.00
6018;DHT22;3037;51.068;13.780;2022-09-02T14:05:33;23.50;1.00
6018;DHT22;3037;51.068;13.780;2022-09-02T14:08:01;23.50;1.00
6018;DHT22;3037;51.068;13.780;2022-09-02T14:10:29;23.50;1.00
6018;DHT22;3037;51.068;13.780;2022-09-02T14:12:56;23.30;1.00
6018;DHT22;3037;51.068;13.780;2022-09-02T14:15:27;23.20;1.00
6018;DHT22;3037;51.068;13.780;2022-09-02T14:20:35;23.00;1.00
6018;DHT22;3037;51.068;13.780;2022-09-02T14:23:01;22.90;1.00
6018;DHT22;3037;51.068;13.780;2022-09-02T14:25:35;22.80;1.00
6018;DHT22;3037;51.068;13.780;2022-09-02T14:28:07;22.90;1.00
6018;DHT22;3037;51.068;13.780;2022-09-02T14:30:37;22.90;1.00
6018;DHT22;3037;51.068;13.780;2022-09-02T14:36:07;22.30;1.00
6018;DHT22;3037;51.068;13.780;2022-09-02T14:38:48;21.90;1.00
6018;DHT22;3037;51.068;13.780;2022-09-02T14:41:24;21.50;1.00
6018;DHT22;3037;51.068;13.780;2022-09-02T14:43:53;21.50;1.00
6018;DHT22;3037;51.068;13.780;2022-09-02T14:46:37;21.30;1.00
6018;DHT22;3037;51.068;13.780;2022-09-02T14:49:06;21.30;1.00
6018;DHT22;3037;51.068;13.780;2022-09-02T14:54:10;21.20;1.00
6018;DHT22;3037;51.068;13.780;2022-09-02T14:57:03;21.00;1.00
6018;DHT22;3037;51.068;13.780;2022-09-02T14:59:28;21.00;1.00
6018;DHT22;3037;51.068;13.780;2022-09-02T15:01:55;20.90;1.00
6018;DHT22;3037;51.068;13.780;2022-09-02T15:04:22;20.80;1.00
6018;DHT22;3037;51.068;13.780;2022-09-02T15:06:48;20.90;1.00
6018;DHT22;3037;51.068;13.780;2022-09-02T15:09:14;20.80;1.00
6018;DHT22;3037;51.068;13.780;2022-09-02T15:11:43;20.70;1.00
6018;DHT22;3037;51.068;13.780;2022-09-02T15:14:10;20.80;1.00
6018;DHT22;3037;51.068;13.780;2022-09-02T15:16:37;21.00;1.00
6018;DHT22;3037;51.068;13.780;2022-09-02T15:19:03;21.30;1.00
6018;DHT22;3037;51.068;13.780;2022-09-02T15:21:29;21.40;1.00
6018;DHT22;3037;51.068;13.780;2022-09-02T15:23:54;21.60;1.00
6018;DHT22;3037;51.068;13.780;2022-09-02T15:26:21;21.90;1.00
6018;DHT22;3037;51.068;13.780;2022-09-02T15:28:47;21.90;1.00
6018;DHT22;3037;51.068;13.780;2022-09-02T15:31:13;22.00;1.00
6018;DHT22;3037;51.068;13.780;2022-09-02T15:33:39;22.20;1.00
6018;DHT22;3037;51.068;13.780;2022-09-02T15:36:08;22.10;1.00
6018;DHT22;3037;51.068;13.780;2022-09-02T15:38:35;21.90;1.00
6018;DHT22;3037;51.068;13.780;2022-09-02T15:41:19;21.70;1.00
6018;DHT22;3037;51.068;13.780;2022-09-02T15:43:46;21.50;1.00
6018;DHT22;3037;51.068;13.780;2022-09-02T15:46:29;21.30;1.00
6018;DHT22;3037;51.068;13.780;2022-09-02T15:48:58;20.90;1.00
6018;DHT22;3037;51.068;13.780;2022-09-02T15:51:24;20.70;1.00
6018;DHT22;3037;51.068;13.780;2022-09-02T15:53:58;20.60;1.00
6018;DHT22;3037;51.068;13.780;2022-09-02T15:56:25;20.40;1.00
6018;DHT22;3037;51.068;13.780;2022-09-02T15:58:56;20.30;1.00
6018;DHT22;3037;51.068;13.780;2022-09-02T16:01:23;20.30;1.00
6018;DHT22;3037;51.068;13.780;2022-09-02T16:03:49;20.20;1.00
6018;DHT22;3037;51.068;13.780;2022-09-02T16:06:14;20.10;1.00
6018;DHT22;3037;51.068;13.780;2022-09-02T16:08:40;20.10;1.00
6018;DHT22;3037;51.068;13.780;2022-09-02T16:11:07;20.00;1.00
6018;DHT22;3037;51.068;13.780;2022-09-02T16:13:34;20.00;1.00
6018;DHT22;3037;51.068;13.780;2022-09-02T16:16:05;20.00;1.00
6018;DHT22;3037;51.068;13.780;2022-09-02T16:18:32;19.90;1.00
6018;DHT22;3037;51.068;13.780;2022-09-02T16:20:58;19.90;1.00
6018;DHT22;3037;51.068;13.780;2022-09-02T16:23:24;19.90;1.00
6018;DHT22;3037;51.068;13.780;2022-09-02T16:28:39;19.90;1.00
6018;DHT22;3037;51.068;13.780;2022-09-02T16:31:06;19.90;1.00
6018;DHT22;3037;51.068;13.780;2022-09-02T16:33:33;20.00;1.00
6018;DHT22;3037;51.068;13.780;2022-09-02T16:35:59;19.90;1.00
6018;DHT22;3037;51.068;13.780;2022-09-02T16:38:24;19.90;1.00
6018;DHT22;3037;51.068;13.780;2022-09-02T16:40:55;19.90;1.00
6018;DHT22;3037;51.068;13.780;2022-09-02T16:43:22;20.00;1.00
6018;DHT22;3037;51.068;13.780;2022-09-02T16:45:48;20.00;1.00
6018;DHT22;3037;51.068;13.780;2022-09-02T16:48:19;20.00;1.00
6018;DHT22;3037;51.068;13.780;2022-09-02T16:50:45;20.00;1.00
6018;DHT22;3037;51.068;13.780;2022-09-02T16:53:12;20.00;1.00
6018;DHT22;3037;51.068;13.780;2022-09-02T16:55:41;20.00;1.00
6018;DHT22;3037;51.068;13.780;2022-09-02T16:58:07;19.90;1.00
6018;DHT22;3037;51.068;13.780;2022-09-02T17:00:37;19.90;1.00
6018;DHT22;3037;51.068;13.780;2022-09-02T17:03:08;19.80;1.00
6018;DHT22;3037;51.068;13.780;2022-09-02T17:05:34;19.80;1.00
6018;DHT22;3037;51.068;13.780;2022-09-02T17:08:00;19.80;1.00
6018;DHT22;3037;51.068;13.780;2022-09-02T17:10:28;19.80;1.00
6018;DHT22;3037;51.068;13.780;2022-09-02T17:12:54;19.80;1.00
6018;DHT22;3037;51.068;13.780;2022-09-02T17:15:20;19.70;1.00
6018;DHT22;3037;51.068;13.780;2022-09-02T17:17:46;19.70;1.00
6018;DHT22;3037;51.068;13.780;2022-09-02T17:20:11;19.50;1.00
6018;DHT22;3037;51.068;13.780;2022-09-02T17:22:38;19.50;1.00
6018;DHT22;3037;51.068;13.780;2022-09-02T17:25:05;19.40;1.00
6018;DHT22;3037;51.068;13.780;2022-09-02T17:27:30;19.30;1.00
6018;DHT22;3037;51.068;13.780;2022-09-02T17:29:57;19.20;1.00
6018;DHT22;3037;51.068;13.780;2022-09-02T17:32:24;19.20;1.00
6018;DHT22;3037;51.068;13.780;2022-09-02T17:34:51;19.10;1.00
6018;DHT22;3037;51.068;13.780;2022-09-02T17:37:17;18.90;1.00
6018;DHT22;3037;51.068;13.780;2022-09-02T17:39:43;18.80;1.00
6018;DHT22;3037;51.068;13.780;2022-09-02T17:42:08;18.70;1.00
6018;DHT22;3037;51.068;13.780;2022-09-02T17:44:36;18.60;1.00
6018;DHT22;3037;51.068;13.780;2022-09-02T17:47:05;18.40;1.00
6018;DHT22;3037;51.068;13.780;2022-09-02T17:49:31;18.30;1.00
6018;DHT22;3037;51.068;13.780;2022-09-02T17:51:58;18.10;1.00
6018;DHT22;3037;51.068;13.780;2022-09-02T17:54:25;18.10;1.00
6018;DHT22;3037;51.068;13.780;2022-09-02T17:57:07;18.00;1.00
6018;DHT22;3037;51.068;13.780;2022-09-02T18:05:02;17.90;1.00
6018;DHT22;3037;51.068;13.780;2022-09-02T18:10:17;17.70;1.00
6018;DHT22;3037;51.068;13.780;2022-09-02T18:12:43;17.60;1.00
6018;DHT22;3037;51.068;13.780;2022-09-02T18:15:12;17.60;1.00
6018;DHT22;3037;51.068;13.780;2022-09-02T18:17:47;17.60;1.00
6018;DHT22;3037;51.068;13.780;2022-09-02T18:20:24;17.50;1.00
6018;DHT22;3037;51.068;13.780;2022-09-02T18:33:38;17.50;1.00
6018;DHT22;3037;51.068;13.780;2022-09-02T18:42:20;17.50;1.00
6018;DHT22;3037;51.068;13.780;2022-09-02T18:44:58;17.40;1.00
6018;DHT22;3037;51.068;13.780;2022-09-02T18:47:35;17.40;1.00
6018;DHT22;3037;51.068;13.780;2022-09-02T18:50:05;17.30;1.00
6018;DHT22;3037;51.068;13.780;2022-09-02T18:52:31;17.30;1.00
6018;DHT22;3037;51.068;13.780;2022-09-02T18:55:10;17.30;1.00
6018;DHT22;3037;51.068;13.780;2022-09-02T18:57:46;17.30;1.00
6018;DHT22;3037;51.068;13.780;2022-09-02T19:00:13;17.30;1.00
6018;DHT22;3037;51.068;13.780;2022-09-02T19:02:46;17.20;1.00
6018;DHT22;3037;51.068;13.780;2022-09-02T19:05:22;17.20;1.00
6018;DHT22;3037;51.068;13.780;2022-09-02T19:07:57;17.20;1.00